createdAt,value
2023-01-26T00:32:17.843Z,92814.00
2023-01-26T00:36:17.446Z,92814.00
2023-01-26T00:37:17.356Z,92818.00
2023-01-26T00:38:17.268Z,92818.00
2023-01-26T00:39:17.152Z,92812.00
2023-01-26T00:40:17.057Z,92814.00
2023-01-26T00:41:16.960Z,92812.00
2023-01-26T00:42:16.852Z,92814.00
2023-01-26T00:43:16.763Z,92812.00
2023-01-26T00:44:16.674Z,92812.00
2023-01-26T00:45:16.562Z,92810.00
2023-01-26T00:46:16.484Z,92810.00
2023-01-26T00:47:16.361Z,92814.00
2023-01-26T00:48:16.271Z,92812.00
2023-01-26T00:49:16.172Z,92810.00
2023-01-26T00:50:16.057Z,92810.00
2023-01-26T00:51:15.969Z,92808.00
2023-01-26T00:52:15.876Z,92808.00
2023-01-26T00:53:15.770Z,92806.00
2023-01-26T00:54:15.657Z,92802.00
2023-01-26T00:55:15.570Z,92802.00
2023-01-26T00:56:15.465Z,92798.00
2023-01-26T00:57:15.368Z,92798.00
2023-01-26T00:58:15.270Z,92796.00
2023-01-26T00:59:15.161Z,92796.00
2023-01-26T01:00:15.063Z,92796.00
2023-01-26T01:01:14.989Z,92794.00
2023-01-26T01:08:15.031Z,92787.00
2023-01-26T01:10:15.029Z,92789.00
2023-01-26T02:20:06.997Z,92742.00
2023-01-26T02:21:06.893Z,92740.00
2023-01-26T02:22:06.792Z,92738.00
2023-01-26T02:23:06.710Z,92736.00
2023-01-26T02:24:06.625Z,92732.00
2023-01-26T02:25:06.494Z,92728.00
2023-01-26T02:26:06.399Z,92728.00
2023-01-26T02:27:06.295Z,92728.00
2023-01-26T02:28:06.187Z,92726.00
2023-01-26T02:29:06.086Z,92724.00
2023-01-26T02:30:05.977Z,92724.00
2023-01-26T02:31:05.975Z,92720.00
2023-01-26T02:32:05.782Z,92720.00
2023-01-26T02:33:05.687Z,92720.00
2023-01-26T02:34:05.588Z,92722.00
2023-01-26T02:35:05.563Z,92718.00
2023-01-26T02:36:05.402Z,92720.00
2023-01-26T02:37:05.297Z,92718.00
2023-01-26T02:38:05.199Z,92718.00
2023-01-26T02:39:05.109Z,92712.00
2023-01-26T02:40:05.009Z,92714.00
2023-01-26T02:41:04.922Z,92714.00
2023-01-26T02:42:04.824Z,92712.00
2023-01-26T02:43:04.721Z,92714.00
2023-01-26T02:44:04.638Z,92714.00
2023-01-26T02:45:04.531Z,92714.00
2023-01-26T02:46:04.454Z,92714.00
2023-01-26T02:47:04.335Z,92708.00
2023-01-26T02:48:04.252Z,92710.00
2023-01-26T02:49:04.139Z,92710.00
2023-01-26T02:50:04.034Z,92710.00
2023-01-26T02:51:03.946Z,92708.00
2023-01-26T02:52:03.915Z,92706.00
2023-01-26T02:53:03.738Z,92706.00
2023-01-26T02:54:03.631Z,92704.00
2023-01-26T02:55:03.523Z,92706.00
2023-01-26T02:56:03.442Z,92706.00
2023-01-26T02:57:03.336Z,92704.00
2023-01-26T02:58:03.232Z,92706.00
2023-01-26T02:59:03.140Z,92704.00
2023-01-26T03:00:03.043Z,92702.00
2023-01-26T03:01:03.020Z,92700.00
2023-01-26T03:02:02.872Z,92702.00
2023-01-26T03:03:02.756Z,92700.00
2023-01-26T03:04:02.660Z,92698.00
2023-01-26T03:05:02.561Z,92696.00
2023-01-26T03:06:02.457Z,92696.00
2023-01-26T03:07:02.362Z,92695.00
2023-01-26T03:08:02.263Z,92695.00
2023-01-26T03:09:02.144Z,92695.00
2023-01-26T03:10:02.055Z,92693.00
2023-01-26T03:11:01.973Z,92693.00
2023-01-26T03:12:01.868Z,92691.00
2023-01-26T03:13:01.759Z,92693.00
2023-01-26T03:14:01.652Z,92693.00
2023-01-26T03:15:01.551Z,92695.00
2023-01-26T03:16:01.478Z,92695.00
2023-01-26T03:17:01.349Z,92693.00
2023-01-26T03:18:01.247Z,92696.00
2023-01-26T03:19:01.150Z,92695.00
2023-01-26T03:20:01.052Z,92695.00
2023-01-26T03:21:00.955Z,92693.00
2023-01-26T03:22:00.859Z,92693.00
2023-01-26T03:23:00.754Z,92691.00
2023-01-26T03:24:00.665Z,92693.00
2023-01-26T03:25:00.547Z,92689.00
2023-01-26T03:26:01.087Z,92691.00
2023-01-26T03:27:00.424Z,92691.00
2023-01-26T03:28:00.251Z,92691.00
2023-01-26T03:29:00.153Z,92691.00
2023-01-26T03:30:00.079Z,92687.00
2023-01-26T03:30:59.995Z,92691.00
2023-01-26T03:31:59.858Z,92693.00
2023-01-26T03:32:59.754Z,92691.00
2023-01-26T03:33:59.647Z,92695.00
2023-01-26T03:34:59.568Z,92693.00
2023-01-26T03:35:59.475Z,92693.00
2023-01-26T03:36:59.347Z,92693.00
2023-01-26T03:38:00.100Z,92695.00
2023-01-26T03:38:59.157Z,92693.00
2023-01-26T03:39:59.068Z,92693.00
2023-01-26T03:40:58.971Z,92696.00
2023-01-26T03:41:58.867Z,92693.00
2023-01-26T03:42:58.768Z,92695.00
2023-01-26T03:43:58.656Z,92696.00
2023-01-26T03:44:58.549Z,92695.00
2023-01-26T03:45:58.453Z,92695.00
2023-01-26T03:46:58.431Z,92693.00
2023-01-26T03:47:58.266Z,92693.00
2023-01-26T03:48:58.132Z,92696.00
2023-01-26T03:49:58.036Z,92696.00
2023-01-26T03:50:57.929Z,92698.00
2023-01-26T03:51:57.835Z,92700.00
2023-01-26T03:52:57.727Z,92700.00
2023-01-26T03:53:57.636Z,92698.00
2023-01-26T03:54:57.531Z,92696.00
2023-01-26T03:55:57.425Z,92698.00
2023-01-26T03:56:57.331Z,92704.00
2023-01-26T03:57:57.218Z,92702.00
2023-01-26T03:58:57.121Z,92700.00
2023-01-26T03:59:57.018Z,92702.00
2023-01-26T04:00:56.960Z,92700.00
2023-01-26T04:01:56.846Z,92702.00
2023-01-26T04:02:56.681Z,92706.00
2023-01-26T04:03:56.588Z,92704.00
2023-01-26T04:04:56.467Z,92712.00
2023-01-26T04:05:56.381Z,92710.00
2023-01-26T04:06:57.230Z,92712.00
2023-01-26T04:07:56.109Z,92710.00
2023-01-26T04:08:55.976Z,92712.00
2023-01-26T04:09:55.847Z,92712.00
2023-01-26T04:10:55.721Z,92712.00
2023-01-26T04:11:55.599Z,92710.00
2023-01-26T04:12:55.479Z,92710.00
2023-01-26T04:13:55.343Z,92706.00
2023-01-26T04:14:55.215Z,92706.00
2023-01-26T04:15:55.081Z,92704.00
2023-01-26T04:16:54.964Z,92706.00
2023-01-26T04:17:54.827Z,92706.00
2023-01-26T04:18:54.707Z,92706.00
2023-01-26T04:19:54.572Z,92702.00
2023-01-26T04:20:54.447Z,92708.00
2023-01-26T04:21:54.321Z,92706.00
2023-01-26T04:22:54.191Z,92706.00
2023-01-26T04:23:54.155Z,92706.00
2023-01-26T04:24:53.938Z,92704.00
2023-01-26T04:25:53.816Z,92706.00
2023-01-26T04:26:53.674Z,92702.00
2023-01-26T04:27:53.554Z,92702.00
2023-01-26T04:28:53.417Z,92702.00
2023-01-26T04:29:53.282Z,92698.00
2023-01-26T04:30:53.210Z,92695.00
2023-01-26T04:31:53.108Z,92696.00
2023-01-26T04:32:52.922Z,92696.00
2023-01-26T04:33:52.795Z,92695.00
2023-01-26T04:34:52.671Z,92693.00
2023-01-26T04:35:52.527Z,92695.00
2023-01-26T04:36:52.419Z,92695.00
2023-01-26T04:37:52.271Z,92693.00
2023-01-26T04:38:52.150Z,92695.00
2023-01-26T04:39:52.017Z,92695.00
2023-01-26T04:40:51.892Z,92693.00
2023-01-26T04:41:51.765Z,92695.00
2023-01-26T04:42:51.634Z,92695.00
2023-01-26T04:43:51.503Z,92693.00
2023-01-26T04:44:51.404Z,92691.00
2023-01-26T05:52:43.610Z,92720.00
2023-01-26T05:53:43.486Z,92722.00
2023-01-26T05:54:43.371Z,92726.00
2023-01-26T05:55:43.255Z,92728.00
2023-01-26T05:56:43.140Z,92732.00
2023-01-26T05:57:43.030Z,92730.00
2023-01-26T05:58:42.916Z,92734.00
2023-01-26T05:59:42.814Z,92732.00
2023-01-26T06:00:42.687Z,92736.00
2023-01-26T06:01:42.571Z,92734.00
2023-01-26T06:02:42.464Z,92736.00
2023-01-26T06:03:42.346Z,92732.00
2023-01-26T06:04:42.220Z,92734.00
2023-01-26T06:05:42.112Z,92736.00
2023-01-26T06:06:42.002Z,92738.00
2023-01-26T06:07:41.921Z,92738.00
2023-01-26T06:08:41.773Z,92740.00
2023-01-26T06:09:41.659Z,92743.00
2023-01-26T06:10:41.552Z,92743.00
2023-01-26T06:11:41.451Z,92743.00
2023-01-26T07:18:34.468Z,92745.00
2023-01-26T07:19:34.393Z,92742.00
2023-01-26T07:20:34.311Z,92743.00
2023-01-26T07:21:34.245Z,92740.00
2023-01-26T07:22:34.186Z,92734.00
2023-01-26T07:23:35.099Z,92738.00
2023-01-26T07:24:33.984Z,92740.00
2023-01-26T07:25:33.900Z,92736.00
2023-01-26T07:26:33.798Z,92736.00
2023-01-26T07:27:33.746Z,92734.00
2023-01-26T07:28:33.659Z,92738.00
2023-01-26T07:29:33.552Z,92740.00
2023-01-26T07:52:31.856Z,92742.00
2023-01-26T07:53:31.813Z,92738.00
2023-01-26T07:54:31.767Z,92740.00
2023-01-26T07:55:31.730Z,92734.00
2023-01-26T07:56:31.720Z,92738.00
2023-01-26T07:57:31.626Z,92738.00
2023-01-26T07:59:31.591Z,92740.00
2023-01-26T08:00:31.468Z,92736.00
2023-01-26T09:26:24.308Z,92644.00
2023-01-26T09:31:24.007Z,92642.00
2023-01-26T09:37:23.446Z,92646.00
2023-01-26T09:38:23.346Z,92649.00
2023-01-26T09:39:23.224Z,92651.00
2023-01-26T09:40:23.115Z,92649.00
2023-01-26T09:41:22.981Z,92648.00
2023-01-26T09:42:22.865Z,92646.00
2023-01-26T09:43:23.642Z,92648.00
2023-01-26T09:44:22.639Z,92644.00
2023-01-26T09:45:22.507Z,92640.00
2023-01-26T09:46:22.426Z,92640.00
2023-01-26T09:47:22.274Z,92638.00
2023-01-26T09:48:25.141Z,92638.00
2023-01-26T09:49:22.014Z,92640.00
2023-01-26T09:50:21.896Z,92636.00
2023-01-26T09:51:21.769Z,92634.00
2023-01-26T09:52:21.652Z,92632.00
2023-01-26T09:53:21.530Z,92632.00
2023-01-26T09:54:21.447Z,92630.00
2023-01-26T10:26:17.034Z,92577.00
2023-01-26T10:27:16.883Z,92575.00
2023-01-26T10:28:16.726Z,92575.00
2023-01-26T10:29:16.598Z,92573.00
2023-01-26T10:30:16.468Z,92573.00
2023-01-26T10:31:16.357Z,92569.00
2023-01-26T10:32:16.147Z,92567.00
2023-01-26T10:33:16.719Z,92567.00
2023-01-26T10:34:15.857Z,92563.00
2023-01-26T10:35:15.716Z,92565.00
2023-01-26T10:36:15.647Z,92563.00
2023-01-26T10:37:15.428Z,92561.00
2023-01-26T10:38:15.280Z,92563.00
2023-01-26T10:39:15.684Z,92557.00
2023-01-26T10:40:14.971Z,92559.00
2023-01-26T10:41:14.809Z,92554.00
2023-01-26T10:42:14.669Z,92554.00
2023-01-26T10:43:14.525Z,92552.00
2023-01-26T10:44:14.384Z,92550.00
2023-01-26T10:45:14.538Z,92548.00
2023-01-26T10:46:14.153Z,92548.00
2023-01-26T10:47:13.964Z,92548.00
2023-01-26T10:48:13.798Z,92548.00
2023-01-26T10:49:13.661Z,92546.00
2023-01-26T10:50:13.506Z,92544.00
2023-01-26T10:51:13.371Z,92546.00
2023-01-26T10:52:13.210Z,92544.00
2023-01-26T10:53:13.099Z,92540.00
2023-01-26T10:54:12.922Z,92538.00
2023-01-26T10:55:13.213Z,92536.00
2023-01-26T10:56:12.630Z,92536.00
2023-01-26T10:57:12.488Z,92532.00
2023-01-26T10:58:12.347Z,92534.00
2023-01-26T10:59:12.220Z,92530.00
2023-01-26T11:00:12.064Z,92530.00
2023-01-26T11:01:12.014Z,92532.00
2023-01-26T11:02:11.767Z,92528.00
2023-01-26T11:03:11.692Z,92526.00
2023-01-26T11:04:11.491Z,92524.00
2023-01-26T11:05:11.656Z,92522.00
2023-01-26T12:16:02.672Z,92428.00
2023-01-26T12:18:02.485Z,92420.00
2023-01-26T12:20:02.317Z,92422.00
2023-01-26T12:22:02.161Z,92414.00
2023-01-26T12:23:02.060Z,92414.00
2023-01-26T12:24:02.013Z,92412.00
2023-01-26T12:25:18.490Z,92410.00
2023-01-26T12:27:01.593Z,92412.00
2023-01-26T12:28:01.455Z,92410.00
2023-01-26T13:13:57.356Z,92379.00
2023-01-26T13:14:57.272Z,92377.00
2023-01-26T13:15:57.184Z,92379.00
2023-01-26T13:16:57.108Z,92377.00
2023-01-26T13:17:57.027Z,92375.00
2023-01-26T13:18:56.957Z,92375.00
2023-01-26T13:19:56.881Z,92373.00
2023-01-26T13:20:57.731Z,92373.00
2023-01-26T13:21:56.742Z,92371.00
2023-01-26T13:22:56.665Z,92369.00
2023-01-26T13:23:56.625Z,92367.00
2023-01-26T13:24:56.510Z,92363.00
2023-01-26T13:25:56.705Z,92367.00
2023-01-26T13:26:56.355Z,92367.00
2023-01-26T13:27:56.294Z,92369.00
2023-01-26T13:28:56.226Z,92367.00
2023-01-26T13:29:56.145Z,92371.00
2023-01-26T13:31:56.005Z,92373.00
2023-01-26T13:32:55.927Z,92371.00
2023-01-26T13:33:55.849Z,92373.00
2023-01-26T13:34:55.795Z,92375.00
2023-01-26T13:35:55.728Z,92371.00
2023-01-26T13:36:55.636Z,92377.00
2023-01-26T13:37:55.573Z,92373.00
2023-01-26T13:38:55.495Z,92375.00
2023-01-26T13:49:54.723Z,92379.00
2023-01-26T14:04:53.641Z,92389.00
2023-01-26T14:05:53.574Z,92385.00
2023-01-26T14:06:53.497Z,92383.00
2023-01-26T14:08:53.353Z,92385.00
2023-01-26T14:09:53.271Z,92387.00
2023-01-26T14:10:53.217Z,92385.00
2023-01-26T14:11:53.144Z,92385.00
2023-01-26T14:12:53.065Z,92383.00
2023-01-26T14:13:53.007Z,92383.00
2023-01-26T14:14:52.920Z,92385.00
2023-01-26T14:15:52.869Z,92383.00
2023-01-26T14:16:52.773Z,92383.00
2023-01-26T14:17:52.700Z,92385.00
2023-01-26T14:18:52.629Z,92387.00
2023-01-26T14:19:52.563Z,92389.00
2023-01-26T14:20:52.494Z,92389.00
2023-01-26T14:21:52.418Z,92389.00
2023-01-26T14:26:52.077Z,92389.00
2023-01-26T14:27:52.000Z,92389.00
2023-01-26T14:28:51.933Z,92389.00
2023-01-26T14:29:51.873Z,92391.00
2023-01-26T14:30:51.903Z,92393.00
2023-01-26T14:31:51.734Z,92395.00
2023-01-26T14:32:51.662Z,92395.00
2023-01-26T14:33:51.598Z,92397.00
2023-01-26T14:34:51.525Z,92395.00
2023-01-26T14:35:51.464Z,92399.00
2023-01-26T16:03:45.286Z,92504.00
2023-01-26T16:04:45.195Z,92506.00
2023-01-26T16:05:45.049Z,92506.00
2023-01-26T16:06:44.927Z,92508.00
2023-01-26T16:07:45.786Z,92510.00
2023-01-26T16:08:44.673Z,92512.00
2023-01-26T16:09:44.548Z,92510.00
2023-01-26T16:10:44.440Z,92512.00
2023-01-26T16:11:44.309Z,92512.00
2023-01-26T16:12:44.185Z,92512.00
2023-01-26T16:13:46.474Z,92512.00
2023-01-26T16:14:44.931Z,92516.00
2023-01-26T16:15:43.834Z,92518.00
2023-01-26T16:16:43.884Z,92516.00
2023-01-26T16:17:43.520Z,92518.00
2023-01-26T16:18:43.388Z,92520.00
2023-01-26T16:19:43.264Z,92522.00
2023-01-26T16:20:43.130Z,92522.00
2023-01-26T16:21:43.006Z,92526.00
2023-01-26T16:22:42.874Z,92526.00
2023-01-26T16:23:42.740Z,92526.00
2023-01-26T16:24:42.687Z,92528.00
2023-01-26T16:25:42.477Z,92528.00
2023-01-26T16:26:42.351Z,92532.00
2023-01-26T16:27:42.227Z,92530.00
2023-01-26T16:28:42.089Z,92532.00
2023-01-26T16:29:41.979Z,92532.00
2023-01-26T16:30:41.842Z,92530.00
2023-01-26T16:31:41.740Z,92534.00
2023-01-26T16:32:41.561Z,92530.00
2023-01-26T16:33:41.444Z,92534.00
2023-01-26T17:42:32.837Z,92565.00
2023-01-26T17:43:32.732Z,92567.00
2023-01-26T17:44:32.610Z,92565.00
2023-01-26T17:45:32.516Z,92565.00
2023-01-26T17:46:32.380Z,92567.00
2023-01-26T17:47:32.280Z,92567.00
2023-01-26T17:48:32.147Z,92567.00
2023-01-26T17:49:32.035Z,92571.00
2023-01-26T17:50:31.915Z,92571.00
2023-01-26T17:51:31.797Z,92571.00
2023-01-26T17:52:31.684Z,92573.00
2023-01-26T17:53:31.559Z,92573.00
2023-01-26T17:54:31.455Z,92575.00
2023-01-26T19:12:22.671Z,92573.00
2023-01-26T19:13:22.552Z,92571.00
2023-01-26T19:14:22.461Z,92571.00
2023-01-26T19:15:22.353Z,92573.00
2023-01-26T19:16:22.404Z,92571.00
2023-01-26T19:17:22.150Z,92571.00
2023-01-26T19:18:22.024Z,92571.00
2023-01-26T19:19:21.901Z,92569.00
2023-01-26T19:20:21.799Z,92569.00
2023-01-26T19:21:21.845Z,92567.00
2023-01-26T19:22:21.646Z,92567.00
2023-01-26T19:23:21.474Z,92569.00
2023-01-26T19:49:18.676Z,92554.00
2023-01-26T19:50:18.569Z,92552.00
2023-01-26T19:51:18.483Z,92552.00
2023-01-26T19:52:18.360Z,92548.00
2023-01-26T19:53:18.263Z,92546.00
2023-01-26T19:54:18.958Z,92546.00
2023-01-26T19:55:18.035Z,92544.00
2023-01-26T19:56:17.940Z,92542.00
2023-01-26T19:57:17.816Z,92544.00
2023-01-26T19:58:17.705Z,92542.00
2023-01-26T19:59:17.607Z,92542.00
2023-01-26T20:00:17.508Z,92542.00
2023-01-26T20:01:17.437Z,92542.00
2023-01-26T20:02:17.301Z,92540.00
2023-01-26T20:03:17.168Z,92540.00
2023-01-26T20:04:17.070Z,92540.00
2023-01-26T20:05:16.958Z,92538.00
2023-01-26T20:06:16.856Z,92538.00
2023-01-26T20:07:16.821Z,92540.00
2023-01-26T20:08:16.650Z,92538.00
2023-01-26T20:09:16.542Z,92536.00
2023-01-26T20:10:16.446Z,92536.00
2023-01-26T20:11:16.352Z,92536.00
2023-01-26T20:12:16.266Z,92534.00
2023-01-26T20:13:16.138Z,92536.00
2023-01-26T20:14:16.020Z,92534.00
2023-01-26T20:15:15.915Z,92536.00
2023-01-26T20:16:15.839Z,92536.00
2023-01-26T20:17:15.710Z,92534.00
2023-01-26T20:18:15.607Z,92532.00
2023-01-26T20:19:15.505Z,92534.00
2023-01-26T20:20:15.392Z,92532.00
2023-01-26T20:21:15.958Z,92534.00
2023-01-26T20:22:15.182Z,92532.00
2023-01-26T20:23:15.077Z,92534.00
2023-01-26T20:24:15.015Z,92534.00
2023-01-26T20:25:14.871Z,92536.00
2023-01-26T20:26:14.754Z,92534.00
2023-01-26T20:27:14.650Z,92536.00
2023-01-26T20:28:14.559Z,92534.00
2023-01-26T20:29:14.445Z,92534.00
2023-01-26T20:30:14.714Z,92532.00
2023-01-26T20:31:14.266Z,92534.00
2023-01-26T20:32:14.131Z,92534.00
2023-01-26T20:33:14.028Z,92532.00
2023-01-26T20:34:13.920Z,92532.00
2023-01-26T20:35:13.831Z,92532.00
2023-01-26T20:36:13.721Z,92534.00
2023-01-26T20:37:13.619Z,92536.00
2023-01-26T20:38:13.525Z,92536.00
2023-01-26T20:39:13.409Z,92538.00
2023-01-26T20:40:13.650Z,92536.00
2023-01-26T20:41:13.211Z,92536.00
2023-01-26T20:42:13.092Z,92534.00
2023-01-26T20:43:12.987Z,92532.00
2023-01-26T20:44:12.875Z,92532.00
2023-01-26T20:45:13.066Z,92528.00
2023-01-26T20:46:12.755Z,92528.00
2023-01-26T20:47:12.575Z,92528.00
2023-01-26T20:48:12.452Z,92528.00
2023-01-26T20:49:12.356Z,92530.00
2023-01-26T20:50:12.590Z,92532.00
2023-01-26T20:51:12.133Z,92530.00
2023-01-26T20:52:12.035Z,92532.00
2023-01-26T20:53:11.930Z,92530.00
2023-01-26T20:54:11.820Z,92528.00
2023-01-26T20:55:11.730Z,92526.00
2023-01-26T20:56:11.640Z,92524.00
2023-01-26T20:57:11.525Z,92522.00
2023-01-26T20:58:11.423Z,92522.00
2023-01-26T22:11:04.055Z,92477.00
2023-01-26T22:12:03.957Z,92479.00
2023-01-26T22:13:03.863Z,92477.00
2023-01-26T22:14:03.755Z,92479.00
2023-01-26T22:15:03.640Z,92479.00
2023-01-26T22:16:04.673Z,92479.00
2023-01-26T22:17:03.450Z,92479.00
2023-01-26T22:18:03.358Z,92477.00
2023-01-26T22:19:03.255Z,92479.00
2023-01-26T22:20:03.159Z,92477.00
2023-01-26T22:21:03.060Z,92481.00
2023-01-26T22:22:02.962Z,92477.00
2023-01-26T22:23:02.876Z,92475.00
2023-01-26T22:24:02.811Z,92477.00
2023-01-26T22:25:02.688Z,92477.00
2023-01-26T22:26:02.588Z,92479.00
2023-01-26T22:27:02.490Z,92479.00
2023-01-26T22:28:02.435Z,92479.00
2023-01-26T22:29:02.291Z,92479.00
2023-01-26T22:30:02.207Z,92479.00
2023-01-26T22:31:03.281Z,92479.00
2023-01-26T22:32:02.045Z,92481.00
2023-01-26T22:33:01.902Z,92479.00
2023-01-26T22:34:01.809Z,92479.00
2023-01-26T22:35:01.702Z,92477.00
2023-01-26T22:36:01.601Z,92477.00
2023-01-26T22:37:01.506Z,92477.00
2023-01-26T22:38:01.414Z,92477.00
2023-01-26T23:03:58.933Z,92471.00
2023-01-26T23:04:58.794Z,92469.00
2023-01-26T23:05:58.682Z,92467.00
2023-01-26T23:06:58.608Z,92465.00
2023-01-26T23:07:58.520Z,92467.00
2023-01-26T23:08:58.503Z,92465.00
2023-01-26T23:09:58.330Z,92467.00
2023-01-26T23:10:58.226Z,92467.00
2023-01-26T23:11:58.137Z,92467.00
2023-01-26T23:12:58.034Z,92467.00
2023-01-26T23:13:57.949Z,92469.00
2023-01-26T23:14:57.854Z,92467.00
2023-01-26T23:15:57.756Z,92469.00
2023-01-26T23:16:57.667Z,92471.00
2023-01-26T23:17:57.562Z,92469.00
2023-01-26T23:18:57.480Z,92467.00
2023-01-26T23:19:57.386Z,92467.00
2023-01-26T23:20:57.283Z,92467.00
2023-01-26T23:21:57.187Z,92467.00
2023-01-26T23:22:57.090Z,92467.00
2023-01-26T23:23:57.001Z,92467.00
2023-01-26T23:24:57.530Z,92465.00
2023-01-26T23:25:56.799Z,92467.00
2023-01-26T23:26:56.703Z,92465.00
2023-01-26T23:27:56.612Z,92465.00
2023-01-26T23:28:56.528Z,92465.00
2023-01-26T23:29:56.413Z,92467.00
2023-01-26T23:30:56.356Z,92469.00
2023-01-26T23:31:56.249Z,92469.00
2023-01-26T23:32:56.118Z,92469.00
2023-01-26T23:33:56.033Z,92469.00
2023-01-26T23:34:55.928Z,92469.00
2023-01-26T23:35:55.838Z,92469.00
2023-01-26T23:36:55.754Z,92469.00
2023-01-26T23:37:55.648Z,92471.00
2023-01-26T23:38:55.553Z,92469.00
2023-01-26T23:39:55.462Z,92471.00
2023-01-26T23:40:55.371Z,92469.00
2023-01-26T23:41:55.257Z,92467.00
2023-01-26T23:43:10.441Z,92465.00
2023-01-26T23:44:54.931Z,92463.00
2023-01-26T23:45:54.800Z,92459.00
2023-01-26T23:46:54.822Z,92459.00
2023-01-26T23:47:54.553Z,92461.00
2023-01-26T23:48:54.432Z,92461.00
2023-01-26T23:49:54.301Z,92463.00
2023-01-26T23:50:54.171Z,92461.00
2023-01-26T23:51:54.040Z,92463.00
2023-01-26T23:52:53.907Z,92459.00
2023-01-26T23:53:53.772Z,92459.00
2023-01-26T23:54:53.655Z,92455.00
2023-01-26T23:55:53.520Z,92454.00
2023-01-26T23:56:53.407Z,92452.00
2023-01-26T23:57:53.267Z,92454.00
2023-01-26T23:58:53.135Z,92455.00
2023-01-26T23:59:53.000Z,92455.00
